sensor_id;sensor_type;location;lat;lon;timestamp;P1;durP1;ratioP1;P2;durP2;ratioP2
80675;SDS011;70041;46.088;18.268;2023-05-10T00:01:02;9.60;;;4.10;;
80675;SDS011;70041;46.088;18.268;2023-05-10T00:03:27;9.52;;;4.00;;
80675;SDS011;70041;46.088;18.268;2023-05-10T00:05:53;9.87;;;4.53;;
80675;SDS011;70041;46.088;18.268;2023-05-10T00:08:18;12.40;;;4.57;;
80675;SDS011;70041;46.088;18.268;2023-05-10T00:10:44;9.70;;;5.40;;
80675;SDS011;70041;46.088;18.268;2023-05-10T00:13:09;9.32;;;4.10;;
80675;SDS011;70041;46.088;18.268;2023-05-10T00:15:35;9.27;;;4.03;;
80675;SDS011;70041;46.088;18.268;2023-05-10T00:18:00;10.03;;;4.50;;
80675;SDS011;70041;46.088;18.268;2023-05-10T00:20:26;9.57;;;4.43;;
80675;SDS011;70041;46.088;18.268;2023-05-10T00:22:51;9.07;;;4.20;;
80675;SDS011;70041;46.088;18.268;2023-05-10T00:25:17;8.53;;;4.17;;
80675;SDS011;70041;46.088;18.268;2023-05-10T00:27:42;10.03;;;3.97;;
80675;SDS011;70041;46.088;18.268;2023-05-10T00:30:08;9.43;;;4.27;;
80675;SDS011;70041;46.088;18.268;2023-05-10T00:32:33;8.57;;;3.80;;
80675;SDS011;70041;46.088;18.268;2023-05-10T00:34:59;8.00;;;4.70;;
80675;SDS011;70041;46.088;18.268;2023-05-10T00:37:24;8.90;;;3.90;;
80675;SDS011;70041;46.088;18.268;2023-05-10T00:39:49;9.20;;;4.40;;
80675;SDS011;70041;46.088;18.268;2023-05-10T00:42:15;8.98;;;4.70;;
80675;SDS011;70041;46.088;18.268;2023-05-10T00:44:40;9.63;;;4.40;;
80675;SDS011;70041;46.088;18.268;2023-05-10T00:47:06;8.07;;;3.93;;
80675;SDS011;70041;46.088;18.268;2023-05-10T00:49:32;8.50;;;4.28;;
80675;SDS011;70041;46.088;18.268;2023-05-10T00:51:57;9.03;;;4.87;;
80675;SDS011;70041;46.088;18.268;2023-05-10T00:54:23;9.25;;;4.40;;
80675;SDS011;70041;46.088;18.268;2023-05-10T00:56:49;11.47;;;4.80;;
80675;SDS011;70041;46.088;18.268;2023-05-10T00:59:17;9.75;;;4.50;;
80675;SDS011;70041;46.088;18.268;2023-05-10T01:01:44;8.90;;;4.30;;
80675;SDS011;70041;46.088;18.268;2023-05-10T01:04:10;8.63;;;3.70;;
80675;SDS011;70041;46.088;18.268;2023-05-10T01:06:37;8.70;;;4.18;;
80675;SDS011;70041;46.088;18.268;2023-05-10T01:09:03;9.90;;;4.38;;
80675;SDS011;70041;46.088;18.268;2023-05-10T01:11:29;8.90;;;4.17;;
80675;SDS011;70041;46.088;18.268;2023-05-10T01:13:55;8.10;;;4.17;;
80675;SDS011;70041;46.088;18.268;2023-05-10T01:16:22;8.63;;;4.05;;
80675;SDS011;70041;46.088;18.268;2023-05-10T01:18:48;12.32;;;4.20;;
80675;SDS011;70041;46.088;18.268;2023-05-10T01:21:36;9.10;;;4.47;;
80675;SDS011;70041;46.088;18.268;2023-05-10T01:24:26;8.68;;;4.50;;
80675;SDS011;70041;46.088;18.268;2023-05-10T01:27:23;9.68;;;5.00;;
80675;SDS011;70041;46.088;18.268;2023-05-10T01:35:26;10.87;;;5.27;;
80675;SDS011;70041;46.088;18.268;2023-05-10T01:38:22;10.57;;;5.20;;
80675;SDS011;70041;46.088;18.268;2023-05-10T01:46:41;9.88;;;5.03;;
80675;SDS011;70041;46.088;18.268;2023-05-10T01:49:21;9.40;;;4.90;;
80675;SDS011;70041;46.088;18.268;2023-05-10T01:51:51;11.10;;;5.10;;
80675;SDS011;70041;46.088;18.268;2023-05-10T01:54:22;10.45;;;5.60;;
80675;SDS011;70041;46.088;18.268;2023-05-10T01:56:50;10.90;;;5.50;;
80675;SDS011;70041;46.088;18.268;2023-05-10T01:59:20;11.20;;;5.72;;
80675;SDS011;70041;46.088;18.268;2023-05-10T02:01:47;10.75;;;5.47;;
80675;SDS011;70041;46.088;18.268;2023-05-10T02:04:15;10.25;;;5.72;;
80675;SDS011;70041;46.088;18.268;2023-05-10T02:06:42;11.23;;;5.88;;
80675;SDS011;70041;46.088;18.268;2023-05-10T02:09:10;9.43;;;5.40;;
80675;SDS011;70041;46.088;18.268;2023-05-10T02:11:37;10.70;;;5.50;;
80675;SDS011;70041;46.088;18.268;2023-05-10T02:14:05;9.57;;;5.78;;
80675;SDS011;70041;46.088;18.268;2023-05-10T02:16:34;10.55;;;5.65;;
80675;SDS011;70041;46.088;18.268;2023-05-10T02:19:01;11.07;;;5.82;;
80675;SDS011;70041;46.088;18.268;2023-05-10T02:21:27;12.90;;;5.93;;
80675;SDS011;70041;46.088;18.268;2023-05-10T02:23:54;11.50;;;6.15;;
80675;SDS011;70041;46.088;18.268;2023-05-10T02:26:21;13.98;;;6.03;;
80675;SDS011;70041;46.088;18.268;2023-05-10T02:28:48;12.30;;;6.15;;
80675;SDS011;70041;46.088;18.268;2023-05-10T02:31:14;13.10;;;7.20;;
80675;SDS011;70041;46.088;18.268;2023-05-10T02:33:40;12.80;;;6.87;;
80675;SDS011;70041;46.088;18.268;2023-05-10T02:36:08;13.82;;;6.75;;
80675;SDS011;70041;46.088;18.268;2023-05-10T02:38:35;12.00;;;6.38;;
80675;SDS011;70041;46.088;18.268;2023-05-10T02:41:01;12.35;;;6.55;;
80675;SDS011;70041;46.088;18.268;2023-05-10T02:43:31;12.98;;;6.45;;
80675;SDS011;70041;46.088;18.268;2023-05-10T02:45:58;13.23;;;6.97;;
80675;SDS011;70041;46.088;18.268;2023-05-10T02:48:23;13.10;;;7.07;;
80675;SDS011;70041;46.088;18.268;2023-05-10T02:50:49;11.53;;;6.20;;
80675;SDS011;70041;46.088;18.268;2023-05-10T02:53:22;15.88;;;6.78;;
80675;SDS011;70041;46.088;18.268;2023-05-10T02:55:49;12.18;;;6.88;;
80675;SDS011;70041;46.088;18.268;2023-05-10T02:58:16;13.70;;;7.20;;
80675;SDS011;70041;46.088;18.268;2023-05-10T03:00:44;15.23;;;7.93;;
80675;SDS011;70041;46.088;18.268;2023-05-10T03:03:10;13.63;;;7.20;;
80675;SDS011;70041;46.088;18.268;2023-05-10T03:05:36;15.00;;;7.87;;
80675;SDS011;70041;46.088;18.268;2023-05-10T03:08:01;15.77;;;7.60;;
80675;SDS011;70041;46.088;18.268;2023-05-10T03:10:29;13.43;;;7.53;;
80675;SDS011;70041;46.088;18.268;2023-05-10T03:16:08;14.73;;;7.78;;
80675;SDS011;70041;46.088;18.268;2023-05-10T03:18:44;14.82;;;8.13;;
80675;SDS011;70041;46.088;18.268;2023-05-10T03:21:17;15.20;;;7.60;;
80675;SDS011;70041;46.088;18.268;2023-05-10T03:23:51;16.83;;;8.50;;
80675;SDS011;70041;46.088;18.268;2023-05-10T03:26:24;15.30;;;7.43;;
80675;SDS011;70041;46.088;18.268;2023-05-10T03:28:51;15.38;;;8.23;;
80675;SDS011;70041;46.088;18.268;2023-05-10T03:31:18;15.32;;;8.02;;
80675;SDS011;70041;46.088;18.268;2023-05-10T03:33:50;13.23;;;7.67;;
80675;SDS011;70041;46.088;18.268;2023-05-10T03:36:17;15.80;;;7.65;;
80675;SDS011;70041;46.088;18.268;2023-05-10T03:38:43;14.95;;;7.85;;
80675;SDS011;70041;46.088;18.268;2023-05-10T03:41:08;22.97;;;7.80;;
80675;SDS011;70041;46.088;18.268;2023-05-10T03:43:33;14.43;;;8.33;;
80675;SDS011;70041;46.088;18.268;2023-05-10T03:46:01;14.82;;;8.02;;
80675;SDS011;70041;46.088;18.268;2023-05-10T03:48:27;15.30;;;8.57;;
80675;SDS011;70041;46.088;18.268;2023-05-10T03:50:52;15.25;;;8.80;;
80675;SDS011;70041;46.088;18.268;2023-05-10T03:53:18;13.82;;;8.20;;
80675;SDS011;70041;46.088;18.268;2023-05-10T03:55:43;15.43;;;7.93;;
80675;SDS011;70041;46.088;18.268;2023-05-10T03:58:12;15.47;;;7.87;;
80675;SDS011;70041;46.088;18.268;2023-05-10T04:00:37;16.90;;;8.00;;
80675;SDS011;70041;46.088;18.268;2023-05-10T04:03:08;14.33;;;7.77;;
80675;SDS011;70041;46.088;18.268;2023-05-10T04:05:34;16.88;;;9.07;;
80675;SDS011;70041;46.088;18.268;2023-05-10T04:08:00;14.45;;;8.50;;
80675;SDS011;70041;46.088;18.268;2023-05-10T04:10:25;14.27;;;8.70;;
80675;SDS011;70041;46.088;18.268;2023-05-10T04:12:50;14.03;;;7.90;;
80675;SDS011;70041;46.088;18.268;2023-05-10T04:15:16;15.80;;;8.30;;
80675;SDS011;70041;46.088;18.268;2023-05-10T04:17:41;15.27;;;8.97;;
80675;SDS011;70041;46.088;18.268;2023-05-10T04:20:07;16.17;;;8.75;;
80675;SDS011;70041;46.088;18.268;2023-05-10T04:22:33;16.97;;;8.77;;
80675;SDS011;70041;46.088;18.268;2023-05-10T04:24:58;16.88;;;8.98;;
80675;SDS011;70041;46.088;18.268;2023-05-10T04:27:24;17.43;;;9.97;;
80675;SDS011;70041;46.088;18.268;2023-05-10T04:29:49;18.87;;;10.27;;
80675;SDS011;70041;46.088;18.268;2023-05-10T04:32:15;20.40;;;9.68;;
80675;SDS011;70041;46.088;18.268;2023-05-10T04:34:42;18.50;;;10.50;;
80675;SDS011;70041;46.088;18.268;2023-05-10T04:37:08;18.95;;;10.65;;
80675;SDS011;70041;46.088;18.268;2023-05-10T04:39:33;16.95;;;9.75;;
80675;SDS011;70041;46.088;18.268;2023-05-10T04:42:00;16.53;;;9.47;;
80675;SDS011;70041;46.088;18.268;2023-05-10T04:44:25;16.45;;;10.23;;
80675;SDS011;70041;46.088;18.268;2023-05-10T04:46:51;17.57;;;10.20;;
80675;SDS011;70041;46.088;18.268;2023-05-10T04:49:16;18.47;;;10.33;;
80675;SDS011;70041;46.088;18.268;2023-05-10T04:51:42;16.98;;;9.63;;
80675;SDS011;70041;46.088;18.268;2023-05-10T04:54:08;17.50;;;9.83;;
80675;SDS011;70041;46.088;18.268;2023-05-10T04:56:34;18.73;;;10.52;;
80675;SDS011;70041;46.088;18.268;2023-05-10T04:58:59;16.90;;;10.23;;
80675;SDS011;70041;46.088;18.268;2023-05-10T05:01:25;18.15;;;10.57;;
80675;SDS011;70041;46.088;18.268;2023-05-10T05:03:50;17.77;;;10.53;;
80675;SDS011;70041;46.088;18.268;2023-05-10T05:06:17;18.50;;;9.70;;
80675;SDS011;70041;46.088;18.268;2023-05-10T05:08:43;18.57;;;10.03;;
80675;SDS011;70041;46.088;18.268;2023-05-10T05:11:08;19.20;;;10.13;;
80675;SDS011;70041;46.088;18.268;2023-05-10T05:13:34;18.27;;;10.07;;
80675;SDS011;70041;46.088;18.268;2023-05-10T05:16:00;18.73;;;10.73;;
80675;SDS011;70041;46.088;18.268;2023-05-10T05:18:26;17.30;;;9.43;;
80675;SDS011;70041;46.088;18.268;2023-05-10T05:20:51;18.30;;;10.73;;
80675;SDS011;70041;46.088;18.268;2023-05-10T05:23:17;16.83;;;9.80;;
80675;SDS011;70041;46.088;18.268;2023-05-10T05:25:43;17.02;;;9.73;;
80675;SDS011;70041;46.088;18.268;2023-05-10T05:28:08;22.87;;;9.47;;
80675;SDS011;70041;46.088;18.268;2023-05-10T05:30:34;15.70;;;9.50;;
80675;SDS011;70041;46.088;18.268;2023-05-10T05:32:59;16.33;;;9.37;;
80675;SDS011;70041;46.088;18.268;2023-05-10T05:35:26;18.73;;;9.50;;
80675;SDS011;70041;46.088;18.268;2023-05-10T05:37:51;15.03;;;9.23;;
80675;SDS011;70041;46.088;18.268;2023-05-10T05:40:16;17.00;;;8.70;;
80675;SDS011;70041;46.088;18.268;2023-05-10T05:42:42;17.45;;;8.88;;
80675;SDS011;70041;46.088;18.268;2023-05-10T05:45:07;15.27;;;8.70;;
80675;SDS011;70041;46.088;18.268;2023-05-10T05:47:34;16.08;;;8.95;;
80675;SDS011;70041;46.088;18.268;2023-05-10T05:49:59;15.63;;;8.83;;
80675;SDS011;70041;46.088;18.268;2023-05-10T05:52:25;13.73;;;8.43;;
80675;SDS011;70041;46.088;18.268;2023-05-10T05:54:50;16.73;;;8.10;;
80675;SDS011;70041;46.088;18.268;2023-05-10T05:57:15;13.50;;;7.38;;
80675;SDS011;70041;46.088;18.268;2023-05-10T05:59:41;15.23;;;8.03;;
80675;SDS011;70041;46.088;18.268;2023-05-10T06:02:09;13.27;;;7.65;;
80675;SDS011;70041;46.088;18.268;2023-05-10T06:04:35;16.90;;;7.57;;
80675;SDS011;70041;46.088;18.268;2023-05-10T06:07:00;10.60;;;6.50;;
80675;SDS011;70041;46.088;18.268;2023-05-10T06:09:26;14.93;;;7.73;;
80675;SDS011;70041;46.088;18.268;2023-05-10T06:11:51;14.53;;;7.40;;
80675;SDS011;70041;46.088;18.268;2023-05-10T06:14:17;13.70;;;7.55;;
80675;SDS011;70041;46.088;18.268;2023-05-10T06:16:42;12.77;;;7.23;;
80675;SDS011;70041;46.088;18.268;2023-05-10T06:19:07;12.67;;;7.00;;
80675;SDS011;70041;46.088;18.268;2023-05-10T06:21:33;13.70;;;7.53;;
80675;SDS011;70041;46.088;18.268;2023-05-10T06:23:58;12.63;;;6.53;;
80675;SDS011;70041;46.088;18.268;2023-05-10T06:26:24;13.20;;;6.78;;
80675;SDS011;70041;46.088;18.268;2023-05-10T06:28:49;11.90;;;6.20;;
80675;SDS011;70041;46.088;18.268;2023-05-10T06:31:15;11.47;;;6.53;;
80675;SDS011;70041;46.088;18.268;2023-05-10T06:33:41;11.30;;;6.20;;
80675;SDS011;70041;46.088;18.268;2023-05-10T06:36:06;13.33;;;6.10;;
80675;SDS011;70041;46.088;18.268;2023-05-10T06:38:32;12.83;;;5.87;;
80675;SDS011;70041;46.088;18.268;2023-05-10T06:40:57;10.85;;;5.35;;
80675;SDS011;70041;46.088;18.268;2023-05-10T06:43:22;12.33;;;6.10;;
80675;SDS011;70041;46.088;18.268;2023-05-10T06:45:49;11.90;;;6.00;;
80675;SDS011;70041;46.088;18.268;2023-05-10T06:48:14;9.53;;;5.40;;
80675;SDS011;70041;46.088;18.268;2023-05-10T06:50:40;8.47;;;4.80;;
80675;SDS011;70041;46.088;18.268;2023-05-10T06:53:05;10.17;;;5.20;;
80675;SDS011;70041;46.088;18.268;2023-05-10T06:55:31;10.23;;;5.43;;
80675;SDS011;70041;46.088;18.268;2023-05-10T06:57:56;11.35;;;5.38;;
80675;SDS011;70041;46.088;18.268;2023-05-10T07:00:21;8.77;;;5.17;;
80675;SDS011;70041;46.088;18.268;2023-05-10T07:02:47;9.70;;;5.23;;
80675;SDS011;70041;46.088;18.268;2023-05-10T07:05:13;9.63;;;4.77;;
80675;SDS011;70041;46.088;18.268;2023-05-10T07:07:39;8.68;;;4.47;;
80675;SDS011;70041;46.088;18.268;2023-05-10T07:10:04;8.93;;;5.18;;
80675;SDS011;70041;46.088;18.268;2023-05-10T07:12:30;9.80;;;4.60;;
80675;SDS011;70041;46.088;18.268;2023-05-10T07:14:56;8.82;;;4.80;;
80675;SDS011;70041;46.088;18.268;2023-05-10T07:17:21;9.90;;;5.33;;
80675;SDS011;70041;46.088;18.268;2023-05-10T07:19:47;9.37;;;4.93;;
80675;SDS011;70041;46.088;18.268;2023-05-10T07:22:12;9.17;;;5.17;;
80675;SDS011;70041;46.088;18.268;2023-05-10T07:24:38;8.88;;;5.28;;
80675;SDS011;70041;46.088;18.268;2023-05-10T07:27:03;9.47;;;5.10;;
80675;SDS011;70041;46.088;18.268;2023-05-10T07:29:29;9.32;;;5.13;;
80675;SDS011;70041;46.088;18.268;2023-05-10T07:31:55;11.10;;;6.22;;
80675;SDS011;70041;46.088;18.268;2023-05-10T07:34:20;8.90;;;5.20;;
80675;SDS011;70041;46.088;18.268;2023-05-10T07:36:46;9.57;;;5.60;;
80675;SDS011;70041;46.088;18.268;2023-05-10T07:39:11;10.32;;;5.45;;
80675;SDS011;70041;46.088;18.268;2023-05-10T07:41:37;9.03;;;5.30;;
80675;SDS011;70041;46.088;18.268;2023-05-10T07:44:03;11.55;;;5.95;;
80675;SDS011;70041;46.088;18.268;2023-05-10T07:46:29;13.20;;;6.40;;
80675;SDS011;70041;46.088;18.268;2023-05-10T07:48:55;10.40;;;6.03;;
80675;SDS011;70041;46.088;18.268;2023-05-10T07:51:20;11.23;;;6.33;;
80675;SDS011;70041;46.088;18.268;2023-05-10T07:53:46;11.27;;;6.50;;
80675;SDS011;70041;46.088;18.268;2023-05-10T07:56:22;10.87;;;6.37;;
80675;SDS011;70041;46.088;18.268;2023-05-10T07:59:00;10.73;;;6.85;;
80675;SDS011;70041;46.088;18.268;2023-05-10T08:01:29;11.45;;;7.18;;
80675;SDS011;70041;46.088;18.268;2023-05-10T08:03:57;11.00;;;6.60;;
80675;SDS011;70041;46.088;18.268;2023-05-10T08:06:22;11.77;;;7.47;;
80675;SDS011;70041;46.088;18.268;2023-05-10T08:08:48;10.23;;;7.15;;
80675;SDS011;70041;46.088;18.268;2023-05-10T08:11:16;11.35;;;7.82;;
80675;SDS011;70041;46.088;18.268;2023-05-10T08:13:42;12.10;;;7.60;;
80675;SDS011;70041;46.088;18.268;2023-05-10T08:16:08;11.63;;;7.22;;
80675;SDS011;70041;46.088;18.268;2023-05-10T08:18:33;10.10;;;6.67;;
80675;SDS011;70041;46.088;18.268;2023-05-10T08:20:59;11.13;;;7.77;;
80675;SDS011;70041;46.088;18.268;2023-05-10T08:23:24;11.23;;;8.05;;
80675;SDS011;70041;46.088;18.268;2023-05-10T08:25:49;14.83;;;8.17;;
80675;SDS011;70041;46.088;18.268;2023-05-10T08:28:15;11.20;;;7.80;;
80675;SDS011;70041;46.088;18.268;2023-05-10T08:30:40;12.87;;;7.93;;
80675;SDS011;70041;46.088;18.268;2023-05-10T08:33:06;11.05;;;8.15;;
80675;SDS011;70041;46.088;18.268;2023-05-10T08:35:31;12.25;;;7.97;;
80675;SDS011;70041;46.088;18.268;2023-05-10T08:37:58;12.98;;;8.00;;
80675;SDS011;70041;46.088;18.268;2023-05-10T08:40:23;13.30;;;7.72;;
80675;SDS011;70041;46.088;18.268;2023-05-10T08:42:53;10.60;;;7.07;;
80675;SDS011;70041;46.088;18.268;2023-05-10T08:45:23;12.73;;;7.15;;
80675;SDS011;70041;46.088;18.268;2023-05-10T08:47:50;11.70;;;6.60;;
80675;SDS011;70041;46.088;18.268;2023-05-10T08:50:17;10.45;;;6.60;;
80675;SDS011;70041;46.088;18.268;2023-05-10T08:52:45;11.57;;;7.43;;
80675;SDS011;70041;46.088;18.268;2023-05-10T08:55:14;12.18;;;7.88;;
80675;SDS011;70041;46.088;18.268;2023-05-10T08:57:40;10.60;;;7.18;;
80675;SDS011;70041;46.088;18.268;2023-05-10T09:00:06;10.27;;;7.10;;
80675;SDS011;70041;46.088;18.268;2023-05-10T09:02:33;10.55;;;7.88;;
80675;SDS011;70041;46.088;18.268;2023-05-10T09:04:59;12.37;;;7.30;;
80675;SDS011;70041;46.088;18.268;2023-05-10T09:07:25;12.25;;;7.55;;
80675;SDS011;70041;46.088;18.268;2023-05-10T09:09:50;13.23;;;7.43;;
80675;SDS011;70041;46.088;18.268;2023-05-10T09:12:17;14.02;;;7.88;;
80675;SDS011;70041;46.088;18.268;2023-05-10T09:14:42;11.88;;;6.32;;
80675;SDS011;70041;46.088;18.268;2023-05-10T09:17:09;9.65;;;6.00;;
80675;SDS011;70041;46.088;18.268;2023-05-10T09:19:35;12.57;;;6.63;;
80675;SDS011;70041;46.088;18.268;2023-05-10T09:22:00;9.43;;;6.17;;
80675;SDS011;70041;46.088;18.268;2023-05-10T09:24:28;10.75;;;6.68;;
80675;SDS011;70041;46.088;18.268;2023-05-10T09:26:55;8.93;;;6.10;;
80675;SDS011;70041;46.088;18.268;2023-05-10T09:29:22;10.03;;;5.87;;
80675;SDS011;70041;46.088;18.268;2023-05-10T09:31:48;12.35;;;5.90;;
80675;SDS011;70041;46.088;18.268;2023-05-10T09:34:21;10.37;;;5.27;;
80675;SDS011;70041;46.088;18.268;2023-05-10T09:36:59;10.20;;;5.55;;
80675;SDS011;70041;46.088;18.268;2023-05-10T09:41:58;8.98;;;5.70;;
80675;SDS011;70041;46.088;18.268;2023-05-10T09:44:25;12.65;;;6.65;;
80675;SDS011;70041;46.088;18.268;2023-05-10T09:46:51;8.77;;;6.03;;
80675;SDS011;70041;46.088;18.268;2023-05-10T09:49:18;8.65;;;5.10;;
80675;SDS011;70041;46.088;18.268;2023-05-10T09:51:44;11.13;;;5.07;;
80675;SDS011;70041;46.088;18.268;2023-05-10T09:54:14;9.20;;;5.10;;
80675;SDS011;70041;46.088;18.268;2023-05-10T09:56:41;9.50;;;5.78;;
80675;SDS011;70041;46.088;18.268;2023-05-10T09:59:10;8.60;;;5.47;;
80675;SDS011;70041;46.088;18.268;2023-05-10T10:01:37;9.85;;;5.78;;
80675;SDS011;70041;46.088;18.268;2023-05-10T10:04:04;9.25;;;5.35;;
80675;SDS011;70041;46.088;18.268;2023-05-10T10:06:34;10.07;;;5.50;;
80675;SDS011;70041;46.088;18.268;2023-05-10T10:09:04;9.88;;;6.68;;
80675;SDS011;70041;46.088;18.268;2023-05-10T10:11:33;8.55;;;5.38;;
80675;SDS011;70041;46.088;18.268;2023-05-10T10:13:59;10.30;;;4.97;;
80675;SDS011;70041;46.088;18.268;2023-05-10T10:16:25;7.83;;;5.40;;
80675;SDS011;70041;46.088;18.268;2023-05-10T10:18:52;8.82;;;5.10;;
80675;SDS011;70041;46.088;18.268;2023-05-10T10:21:17;10.37;;;5.50;;
80675;SDS011;70041;46.088;18.268;2023-05-10T10:23:43;10.23;;;4.78;;
80675;SDS011;70041;46.088;18.268;2023-05-10T10:26:09;7.70;;;4.53;;
80675;SDS011;70041;46.088;18.268;2023-05-10T10:28:40;9.23;;;4.30;;
80675;SDS011;70041;46.088;18.268;2023-05-10T10:36:32;8.90;;;4.43;;
80675;SDS011;70041;46.088;18.268;2023-05-10T10:39:08;6.70;;;3.33;;
80675;SDS011;70041;46.088;18.268;2023-05-10T10:41:49;7.90;;;4.78;;
80675;SDS011;70041;46.088;18.268;2023-05-10T10:49:50;6.80;;;3.88;;
80675;SDS011;70041;46.088;18.268;2023-05-10T10:54:58;6.65;;;3.38;;
80675;SDS011;70041;46.088;18.268;2023-05-10T10:57:25;7.35;;;3.20;;
80675;SDS011;70041;46.088;18.268;2023-05-10T11:08:10;6.45;;;3.38;;
80675;SDS011;70041;46.088;18.268;2023-05-10T11:10:35;7.30;;;3.70;;
80675;SDS011;70041;46.088;18.268;2023-05-10T11:13:02;8.90;;;3.77;;
80675;SDS011;70041;46.088;18.268;2023-05-10T11:15:32;7.90;;;4.07;;
80675;SDS011;70041;46.088;18.268;2023-05-10T11:18:23;7.93;;;3.85;;
80675;SDS011;70041;46.088;18.268;2023-05-10T11:20:57;8.15;;;4.35;;
80675;SDS011;70041;46.088;18.268;2023-05-10T11:26:17;8.63;;;4.60;;
80675;SDS011;70041;46.088;18.268;2023-05-10T11:31:08;7.50;;;3.90;;
80675;SDS011;70041;46.088;18.268;2023-05-10T11:33:44;7.93;;;3.78;;
80675;SDS011;70041;46.088;18.268;2023-05-10T11:36:19;9.75;;;4.05;;
80675;SDS011;70041;46.088;18.268;2023-05-10T11:38:47;9.05;;;3.90;;
80675;SDS011;70041;46.088;18.268;2023-05-10T11:41:13;11.33;;;3.87;;
80675;SDS011;70041;46.088;18.268;2023-05-10T11:43:40;6.82;;;3.25;;
80675;SDS011;70041;46.088;18.268;2023-05-10T11:46:07;7.32;;;3.80;;
80675;SDS011;70041;46.088;18.268;2023-05-10T11:48:34;9.60;;;3.85;;
80675;SDS011;70041;46.088;18.268;2023-05-10T11:51:00;9.50;;;4.40;;
80675;SDS011;70041;46.088;18.268;2023-05-10T11:53:27;7.80;;;3.73;;
80675;SDS011;70041;46.088;18.268;2023-05-10T11:55:54;6.90;;;3.50;;
80675;SDS011;70041;46.088;18.268;2023-05-10T11:58:19;7.17;;;3.53;;
80675;SDS011;70041;46.088;18.268;2023-05-10T12:00:49;7.15;;;3.33;;
80675;SDS011;70041;46.088;18.268;2023-05-10T12:03:15;6.40;;;3.33;;
80675;SDS011;70041;46.088;18.268;2023-05-10T12:05:40;7.95;;;3.50;;
80675;SDS011;70041;46.088;18.268;2023-05-10T12:08:19;9.63;;;3.60;;
80675;SDS011;70041;46.088;18.268;2023-05-10T12:10:46;8.32;;;4.25;;
80675;SDS011;70041;46.088;18.268;2023-05-10T12:13:12;7.30;;;3.77;;
80675;SDS011;70041;46.088;18.268;2023-05-10T12:15:39;8.00;;;3.70;;
80675;SDS011;70041;46.088;18.268;2023-05-10T12:18:05;8.20;;;3.70;;
80675;SDS011;70041;46.088;18.268;2023-05-10T12:20:30;8.57;;;3.10;;
80675;SDS011;70041;46.088;18.268;2023-05-10T12:22:56;6.40;;;3.35;;
80675;SDS011;70041;46.088;18.268;2023-05-10T12:25:24;7.40;;;3.30;;
80675;SDS011;70041;46.088;18.268;2023-05-10T12:27:55;6.57;;;3.60;;
80675;SDS011;70041;46.088;18.268;2023-05-10T12:30:25;6.40;;;3.10;;
80675;SDS011;70041;46.088;18.268;2023-05-10T12:32:52;7.00;;;3.80;;
80675;SDS011;70041;46.088;18.268;2023-05-10T12:35:18;7.03;;;3.15;;
80675;SDS011;70041;46.088;18.268;2023-05-10T12:37:47;6.27;;;3.30;;
80675;SDS011;70041;46.088;18.268;2023-05-10T12:40:13;8.95;;;3.35;;
80675;SDS011;70041;46.088;18.268;2023-05-10T12:42:39;5.97;;;3.00;;
80675;SDS011;70041;46.088;18.268;2023-05-10T12:45:05;6.20;;;2.83;;
80675;SDS011;70041;46.088;18.268;2023-05-10T12:47:31;5.82;;;2.90;;
80675;SDS011;70041;46.088;18.268;2023-05-10T12:49:57;5.80;;;2.95;;
80675;SDS011;70041;46.088;18.268;2023-05-10T12:52:24;5.30;;;2.83;;
80675;SDS011;70041;46.088;18.268;2023-05-10T12:54:51;6.65;;;3.30;;
80675;SDS011;70041;46.088;18.268;2023-05-10T12:57:16;8.17;;;3.27;;
80675;SDS011;70041;46.088;18.268;2023-05-10T12:59:42;7.33;;;3.27;;
80675;SDS011;70041;46.088;18.268;2023-05-10T13:02:08;7.27;;;3.23;;
80675;SDS011;70041;46.088;18.268;2023-05-10T13:04:33;6.70;;;2.90;;
80675;SDS011;70041;46.088;18.268;2023-05-10T13:06:59;6.50;;;3.47;;
80675;SDS011;70041;46.088;18.268;2023-05-10T13:09:25;8.33;;;3.23;;
80675;SDS011;70041;46.088;18.268;2023-05-10T13:11:51;8.10;;;3.17;;
80675;SDS011;70041;46.088;18.268;2023-05-10T13:14:19;5.53;;;2.88;;
80675;SDS011;70041;46.088;18.268;2023-05-10T13:16:45;7.53;;;3.57;;
80675;SDS011;70041;46.088;18.268;2023-05-10T13:19:12;7.93;;;3.45;;
80675;SDS011;70041;46.088;18.268;2023-05-10T13:21:37;7.40;;;2.95;;
80675;SDS011;70041;46.088;18.268;2023-05-10T13:24:03;8.07;;;3.30;;
80675;SDS011;70041;46.088;18.268;2023-05-10T13:26:28;7.67;;;3.60;;
80675;SDS011;70041;46.088;18.268;2023-05-10T13:28:54;6.35;;;3.70;;
80675;SDS011;70041;46.088;18.268;2023-05-10T13:31:20;6.93;;;3.53;;
80675;SDS011;70041;46.088;18.268;2023-05-10T13:33:46;7.00;;;3.10;;
80675;SDS011;70041;46.088;18.268;2023-05-10T13:36:11;6.27;;;3.07;;
80675;SDS011;70041;46.088;18.268;2023-05-10T13:38:37;5.50;;;2.83;;
80675;SDS011;70041;46.088;18.268;2023-05-10T13:41:02;7.63;;;3.23;;
80675;SDS011;70041;46.088;18.268;2023-05-10T13:43:28;6.17;;;3.27;;
80675;SDS011;70041;46.088;18.268;2023-05-10T13:45:54;5.43;;;3.00;;
80675;SDS011;70041;46.088;18.268;2023-05-10T13:48:19;5.37;;;2.97;;
80675;SDS011;70041;46.088;18.268;2023-05-10T13:50:45;5.75;;;2.90;;
80675;SDS011;70041;46.088;18.268;2023-05-10T13:53:11;8.93;;;3.37;;
80675;SDS011;70041;46.088;18.268;2023-05-10T13:55:36;5.57;;;2.90;;
80675;SDS011;70041;46.088;18.268;2023-05-10T13:58:02;5.53;;;2.85;;
80675;SDS011;70041;46.088;18.268;2023-05-10T14:00:27;6.27;;;3.10;;
80675;SDS011;70041;46.088;18.268;2023-05-10T14:02:53;5.90;;;2.93;;
80675;SDS011;70041;46.088;18.268;2023-05-10T14:05:18;5.82;;;2.78;;
80675;SDS011;70041;46.088;18.268;2023-05-10T14:07:44;5.97;;;3.17;;
80675;SDS011;70041;46.088;18.268;2023-05-10T14:10:09;6.80;;;3.10;;
80675;SDS011;70041;46.088;18.268;2023-05-10T14:12:35;8.85;;;3.10;;
80675;SDS011;70041;46.088;18.268;2023-05-10T14:15:00;6.03;;;3.10;;
80675;SDS011;70041;46.088;18.268;2023-05-10T14:17:26;8.00;;;2.90;;
80675;SDS011;70041;46.088;18.268;2023-05-10T14:19:51;9.30;;;3.10;;
80675;SDS011;70041;46.088;18.268;2023-05-10T14:22:17;6.25;;;2.80;;
80675;SDS011;70041;46.088;18.268;2023-05-10T14:24:43;7.27;;;2.67;;
80675;SDS011;70041;46.088;18.268;2023-05-10T14:27:11;5.30;;;2.58;;
80675;SDS011;70041;46.088;18.268;2023-05-10T14:29:37;7.03;;;2.60;;
80675;SDS011;70041;46.088;18.268;2023-05-10T14:32:03;6.13;;;2.70;;
80675;SDS011;70041;46.088;18.268;2023-05-10T14:34:28;6.00;;;2.90;;
80675;SDS011;70041;46.088;18.268;2023-05-10T14:36:53;9.75;;;3.15;;
80675;SDS011;70041;46.088;18.268;2023-05-10T14:39:20;6.37;;;2.60;;
80675;SDS011;70041;46.088;18.268;2023-05-10T14:41:45;6.03;;;2.83;;
80675;SDS011;70041;46.088;18.268;2023-05-10T14:44:12;6.63;;;2.80;;
80675;SDS011;70041;46.088;18.268;2023-05-10T14:46:37;8.70;;;3.10;;
80675;SDS011;70041;46.088;18.268;2023-05-10T14:49:03;7.07;;;2.38;;
80675;SDS011;70041;46.088;18.268;2023-05-10T14:51:28;5.90;;;2.50;;
80675;SDS011;70041;46.088;18.268;2023-05-10T14:53:54;6.17;;;3.00;;
80675;SDS011;70041;46.088;18.268;2023-05-10T14:56:20;7.37;;;2.57;;
80675;SDS011;70041;46.088;18.268;2023-05-10T14:58:46;5.30;;;2.70;;
80675;SDS011;70041;46.088;18.268;2023-05-10T15:01:11;9.17;;;2.60;;
80675;SDS011;70041;46.088;18.268;2023-05-10T15:03:37;6.97;;;2.80;;
80675;SDS011;70041;46.088;18.268;2023-05-10T15:06:03;6.73;;;2.90;;
80675;SDS011;70041;46.088;18.268;2023-05-10T15:08:29;6.05;;;3.03;;
80675;SDS011;70041;46.088;18.268;2023-05-10T15:10:54;6.40;;;2.77;;